sensor_id;sensor_type;location;lat;lon;timestamp;P1;durP1;ratioP1;P2;durP2;ratioP2
36443;SDS011;24692;45.642;13.806;2023-03-23T00:02:11;6.13;;;4.50;;
36443;SDS011;24692;45.642;13.806;2023-03-23T00:04:37;7.20;;;4.87;;
36443;SDS011;24692;45.642;13.806;2023-03-23T00:07:02;6.17;;;4.27;;
36443;SDS011;24692;45.642;13.806;2023-03-23T00:09:28;9.37;;;4.70;;
36443;SDS011;24692;45.642;13.806;2023-03-23T00:11:55;7.53;;;4.47;;
36443;SDS011;24692;45.642;13.806;2023-03-23T00:14:22;6.67;;;4.90;;
36443;SDS011;24692;45.642;13.806;2023-03-23T00:16:48;6.97;;;4.37;;
36443;SDS011;24692;45.642;13.806;2023-03-23T00:19:15;6.60;;;5.10;;
36443;SDS011;24692;45.642;13.806;2023-03-23T00:21:42;6.37;;;4.97;;
36443;SDS011;24692;45.642;13.806;2023-03-23T00:24:09;8.03;;;5.23;;
36443;SDS011;24692;45.642;13.806;2023-03-23T00:26:43;7.67;;;5.03;;
36443;SDS011;24692;45.642;13.806;2023-03-23T00:29:19;7.20;;;4.80;;
36443;SDS011;24692;45.642;13.806;2023-03-23T00:31:46;6.13;;;4.47;;
36443;SDS011;24692;45.642;13.806;2023-03-23T00:34:17;6.20;;;4.80;;
36443;SDS011;24692;45.642;13.806;2023-03-23T00:36:46;6.33;;;4.67;;
36443;SDS011;24692;45.642;13.806;2023-03-23T00:39:13;8.57;;;4.67;;
36443;SDS011;24692;45.642;13.806;2023-03-23T00:41:41;7.43;;;4.80;;
36443;SDS011;24692;45.642;13.806;2023-03-23T00:44:11;7.90;;;5.30;;
36443;SDS011;24692;45.642;13.806;2023-03-23T00:46:48;6.87;;;4.90;;
36443;SDS011;24692;45.642;13.806;2023-03-23T00:49:18;8.10;;;5.23;;
36443;SDS011;24692;45.642;13.806;2023-03-23T00:51:49;5.80;;;5.00;;
36443;SDS011;24692;45.642;13.806;2023-03-23T00:54:15;7.83;;;5.73;;
36443;SDS011;24692;45.642;13.806;2023-03-23T00:56:40;7.30;;;5.03;;
36443;SDS011;24692;45.642;13.806;2023-03-23T00:59:06;7.60;;;5.70;;
36443;SDS011;24692;45.642;13.806;2023-03-23T01:01:32;7.37;;;5.87;;
36443;SDS011;24692;45.642;13.806;2023-03-23T01:03:58;8.77;;;6.23;;
36443;SDS011;24692;45.642;13.806;2023-03-23T01:06:29;11.10;;;7.33;;
36443;SDS011;24692;45.642;13.806;2023-03-23T01:08:57;10.30;;;7.00;;
36443;SDS011;24692;45.642;13.806;2023-03-23T01:11:24;11.00;;;6.67;;
36443;SDS011;24692;45.642;13.806;2023-03-23T01:13:50;9.30;;;6.60;;
36443;SDS011;24692;45.642;13.806;2023-03-23T01:16:17;8.37;;;5.93;;
36443;SDS011;24692;45.642;13.806;2023-03-23T01:18:42;8.77;;;6.30;;
36443;SDS011;24692;45.642;13.806;2023-03-23T01:21:09;7.50;;;6.00;;
36443;SDS011;24692;45.642;13.806;2023-03-23T01:23:38;7.50;;;5.87;;
36443;SDS011;24692;45.642;13.806;2023-03-23T01:28:32;6.27;;;5.63;;
36443;SDS011;24692;45.642;13.806;2023-03-23T01:30:59;7.83;;;6.00;;
36443;SDS011;24692;45.642;13.806;2023-03-23T01:33:27;7.20;;;6.13;;
36443;SDS011;24692;45.642;13.806;2023-03-23T01:35:53;8.03;;;6.27;;
36443;SDS011;24692;45.642;13.806;2023-03-23T01:38:19;6.73;;;5.37;;
36443;SDS011;24692;45.642;13.806;2023-03-23T01:40:45;7.30;;;5.63;;
36443;SDS011;24692;45.642;13.806;2023-03-23T01:43:11;8.07;;;5.93;;
36443;SDS011;24692;45.642;13.806;2023-03-23T01:45:39;7.80;;;6.37;;
36443;SDS011;24692;45.642;13.806;2023-03-23T01:50:42;8.77;;;6.10;;
36443;SDS011;24692;45.642;13.806;2023-03-23T01:53:16;7.57;;;5.70;;
36443;SDS011;24692;45.642;13.806;2023-03-23T01:55:43;9.30;;;6.20;;
36443;SDS011;24692;45.642;13.806;2023-03-23T01:58:13;6.07;;;5.33;;
36443;SDS011;24692;45.642;13.806;2023-03-23T02:00:39;7.23;;;6.27;;
36443;SDS011;24692;45.642;13.806;2023-03-23T02:03:07;7.37;;;5.87;;
36443;SDS011;24692;45.642;13.806;2023-03-23T02:05:39;7.10;;;6.20;;
36443;SDS011;24692;45.642;13.806;2023-03-23T02:08:06;7.33;;;6.40;;
36443;SDS011;24692;45.642;13.806;2023-03-23T02:10:33;6.80;;;6.10;;
36443;SDS011;24692;45.642;13.806;2023-03-23T02:13:00;8.70;;;6.23;;
36443;SDS011;24692;45.642;13.806;2023-03-23T02:15:30;8.23;;;5.97;;
36443;SDS011;24692;45.642;13.806;2023-03-23T02:18:11;7.87;;;6.30;;
36443;SDS011;24692;45.642;13.806;2023-03-23T02:34:14;8.87;;;6.47;;
36443;SDS011;24692;45.642;13.806;2023-03-23T02:37:03;7.57;;;6.17;;
36443;SDS011;24692;45.642;13.806;2023-03-23T02:39:47;7.97;;;6.80;;
36443;SDS011;24692;45.642;13.806;2023-03-23T02:42:20;7.43;;;6.20;;
36443;SDS011;24692;45.642;13.806;2023-03-23T02:44:56;8.80;;;6.80;;
36443;SDS011;24692;45.642;13.806;2023-03-23T02:47:27;8.30;;;6.40;;
36443;SDS011;24692;45.642;13.806;2023-03-23T02:49:55;7.30;;;6.13;;
36443;SDS011;24692;45.642;13.806;2023-03-23T02:52:25;8.63;;;6.80;;
36443;SDS011;24692;45.642;13.806;2023-03-23T02:54:53;7.77;;;6.27;;
36443;SDS011;24692;45.642;13.806;2023-03-23T02:57:22;8.30;;;6.77;;
36443;SDS011;24692;45.642;13.806;2023-03-23T02:59:51;6.53;;;5.83;;
36443;SDS011;24692;45.642;13.806;2023-03-23T03:02:38;9.13;;;6.10;;
36443;SDS011;24692;45.642;13.806;2023-03-23T03:08:00;7.27;;;5.97;;
36443;SDS011;24692;45.642;13.806;2023-03-23T03:16:28;7.03;;;6.13;;
36443;SDS011;24692;45.642;13.806;2023-03-23T03:21:50;7.60;;;5.73;;
36443;SDS011;24692;45.642;13.806;2023-03-23T03:24:19;7.87;;;6.00;;
36443;SDS011;24692;45.642;13.806;2023-03-23T03:26:48;7.07;;;5.70;;
36443;SDS011;24692;45.642;13.806;2023-03-23T03:29:17;8.40;;;5.90;;
36443;SDS011;24692;45.642;13.806;2023-03-23T03:31:46;6.57;;;5.47;;
36443;SDS011;24692;45.642;13.806;2023-03-23T03:34:14;8.47;;;5.67;;
36443;SDS011;24692;45.642;13.806;2023-03-23T03:36:43;7.70;;;6.00;;
36443;SDS011;24692;45.642;13.806;2023-03-23T03:39:11;6.20;;;5.50;;
36443;SDS011;24692;45.642;13.806;2023-03-23T03:41:40;6.73;;;5.80;;
36443;SDS011;24692;45.642;13.806;2023-03-23T03:44:07;8.17;;;5.97;;
36443;SDS011;24692;45.642;13.806;2023-03-23T03:46:33;7.47;;;5.80;;
36443;SDS011;24692;45.642;13.806;2023-03-23T03:49:01;7.33;;;5.67;;
36443;SDS011;24692;45.642;13.806;2023-03-23T03:51:28;7.93;;;5.60;;
36443;SDS011;24692;45.642;13.806;2023-03-23T03:53:55;7.43;;;5.80;;
36443;SDS011;24692;45.642;13.806;2023-03-23T03:56:22;5.80;;;5.20;;
36443;SDS011;24692;45.642;13.806;2023-03-23T03:58:48;8.17;;;5.77;;
36443;SDS011;24692;45.642;13.806;2023-03-23T04:01:15;7.20;;;5.23;;
36443;SDS011;24692;45.642;13.806;2023-03-23T04:03:43;5.93;;;5.33;;
36443;SDS011;24692;45.642;13.806;2023-03-23T04:06:09;5.80;;;4.90;;
36443;SDS011;24692;45.642;13.806;2023-03-23T04:08:37;7.37;;;5.07;;
36443;SDS011;24692;45.642;13.806;2023-03-23T04:11:04;6.80;;;5.10;;
36443;SDS011;24692;45.642;13.806;2023-03-23T04:13:30;8.57;;;5.73;;
36443;SDS011;24692;45.642;13.806;2023-03-23T04:15:56;5.90;;;5.30;;
36443;SDS011;24692;45.642;13.806;2023-03-23T04:18:22;6.40;;;5.20;;
36443;SDS011;24692;45.642;13.806;2023-03-23T04:20:50;5.57;;;4.97;;
36443;SDS011;24692;45.642;13.806;2023-03-23T04:23:16;7.30;;;4.57;;
36443;SDS011;24692;45.642;13.806;2023-03-23T04:25:47;6.90;;;5.10;;
36443;SDS011;24692;45.642;13.806;2023-03-23T04:28:15;5.40;;;4.70;;
36443;SDS011;24692;45.642;13.806;2023-03-23T04:30:48;5.30;;;4.80;;
36443;SDS011;24692;45.642;13.806;2023-03-23T04:33:17;5.10;;;4.47;;
36443;SDS011;24692;45.642;13.806;2023-03-23T04:35:44;6.20;;;5.13;;
36443;SDS011;24692;45.642;13.806;2023-03-23T04:38:12;7.17;;;4.93;;
36443;SDS011;24692;45.642;13.806;2023-03-23T04:40:40;5.90;;;4.70;;
36443;SDS011;24692;45.642;13.806;2023-03-23T04:43:07;8.77;;;4.90;;
36443;SDS011;24692;45.642;13.806;2023-03-23T04:45:33;5.97;;;4.53;;
36443;SDS011;24692;45.642;13.806;2023-03-23T04:48:02;5.10;;;4.60;;
36443;SDS011;24692;45.642;13.806;2023-03-23T04:50:30;7.97;;;5.03;;
36443;SDS011;24692;45.642;13.806;2023-03-23T04:52:58;5.33;;;4.77;;
36443;SDS011;24692;45.642;13.806;2023-03-23T04:55:25;4.83;;;4.30;;
36443;SDS011;24692;45.642;13.806;2023-03-23T04:57:51;5.57;;;4.53;;
36443;SDS011;24692;45.642;13.806;2023-03-23T05:00:17;5.17;;;4.47;;
36443;SDS011;24692;45.642;13.806;2023-03-23T05:02:46;5.03;;;4.10;;
36443;SDS011;24692;45.642;13.806;2023-03-23T05:05:12;4.67;;;4.13;;
36443;SDS011;24692;45.642;13.806;2023-03-23T05:07:39;5.63;;;4.53;;
36443;SDS011;24692;45.642;13.806;2023-03-23T05:10:06;5.63;;;4.67;;
36443;SDS011;24692;45.642;13.806;2023-03-23T05:12:34;5.07;;;4.43;;
36443;SDS011;24692;45.642;13.806;2023-03-23T05:15:00;6.33;;;4.80;;
36443;SDS011;24692;45.642;13.806;2023-03-23T05:17:26;4.80;;;4.30;;
36443;SDS011;24692;45.642;13.806;2023-03-23T05:19:52;7.67;;;5.20;;
36443;SDS011;24692;45.642;13.806;2023-03-23T05:22:19;5.83;;;4.30;;
36443;SDS011;24692;45.642;13.806;2023-03-23T05:24:46;6.23;;;4.37;;
36443;SDS011;24692;45.642;13.806;2023-03-23T05:27:12;5.63;;;4.37;;
36443;SDS011;24692;45.642;13.806;2023-03-23T05:29:39;5.60;;;4.30;;
36443;SDS011;24692;45.642;13.806;2023-03-23T05:32:06;5.23;;;4.33;;
36443;SDS011;24692;45.642;13.806;2023-03-23T05:34:32;4.77;;;4.27;;
36443;SDS011;24692;45.642;13.806;2023-03-23T05:36:59;5.93;;;4.10;;
36443;SDS011;24692;45.642;13.806;2023-03-23T05:39:27;4.33;;;3.93;;
36443;SDS011;24692;45.642;13.806;2023-03-23T05:41:53;5.13;;;4.10;;
36443;SDS011;24692;45.642;13.806;2023-03-23T05:44:19;4.57;;;3.90;;
36443;SDS011;24692;45.642;13.806;2023-03-23T05:46:45;5.47;;;3.83;;
36443;SDS011;24692;45.642;13.806;2023-03-23T05:49:12;6.80;;;4.07;;
36443;SDS011;24692;45.642;13.806;2023-03-23T05:51:38;4.90;;;3.97;;
36443;SDS011;24692;45.642;13.806;2023-03-23T05:54:04;6.97;;;3.90;;
36443;SDS011;24692;45.642;13.806;2023-03-23T05:56:30;5.27;;;3.93;;
36443;SDS011;24692;45.642;13.806;2023-03-23T05:58:59;5.53;;;4.10;;
36443;SDS011;24692;45.642;13.806;2023-03-23T06:01:25;5.83;;;4.00;;
36443;SDS011;24692;45.642;13.806;2023-03-23T06:03:51;6.27;;;5.23;;
36443;SDS011;24692;45.642;13.806;2023-03-23T06:06:19;6.03;;;4.80;;
36443;SDS011;24692;45.642;13.806;2023-03-23T06:08:45;6.43;;;3.80;;
36443;SDS011;24692;45.642;13.806;2023-03-23T06:11:11;5.63;;;3.87;;
36443;SDS011;24692;45.642;13.806;2023-03-23T06:13:38;6.33;;;4.00;;
36443;SDS011;24692;45.642;13.806;2023-03-23T06:16:04;6.30;;;4.90;;
36443;SDS011;24692;45.642;13.806;2023-03-23T06:18:29;5.83;;;3.73;;
36443;SDS011;24692;45.642;13.806;2023-03-23T06:20:58;4.63;;;3.70;;
36443;SDS011;24692;45.642;13.806;2023-03-23T06:23:25;6.27;;;3.60;;
36443;SDS011;24692;45.642;13.806;2023-03-23T06:25:55;7.63;;;5.07;;
36443;SDS011;24692;45.642;13.806;2023-03-23T06:28:22;7.50;;;4.20;;
36443;SDS011;24692;45.642;13.806;2023-03-23T06:30:49;8.20;;;4.13;;
36443;SDS011;24692;45.642;13.806;2023-03-23T06:33:15;9.57;;;3.90;;
36443;SDS011;24692;45.642;13.806;2023-03-23T06:35:42;5.90;;;4.00;;
36443;SDS011;24692;45.642;13.806;2023-03-23T06:38:08;6.97;;;4.50;;
36443;SDS011;24692;45.642;13.806;2023-03-23T06:40:34;6.63;;;4.63;;
36443;SDS011;24692;45.642;13.806;2023-03-23T06:43:03;12.03;;;4.90;;
36443;SDS011;24692;45.642;13.806;2023-03-23T06:45:29;8.47;;;5.67;;
36443;SDS011;24692;45.642;13.806;2023-03-23T06:47:56;8.83;;;5.40;;
36443;SDS011;24692;45.642;13.806;2023-03-23T06:50:22;8.10;;;5.17;;
36443;SDS011;24692;45.642;13.806;2023-03-23T06:52:48;7.93;;;4.57;;
36443;SDS011;24692;45.642;13.806;2023-03-23T06:55:16;12.07;;;4.17;;
36443;SDS011;24692;45.642;13.806;2023-03-23T06:57:43;12.77;;;4.80;;
36443;SDS011;24692;45.642;13.806;2023-03-23T07:00:10;8.80;;;4.73;;
36443;SDS011;24692;45.642;13.806;2023-03-23T07:02:39;7.77;;;4.57;;
36443;SDS011;24692;45.642;13.806;2023-03-23T07:05:06;10.87;;;5.03;;
36443;SDS011;24692;45.642;13.806;2023-03-23T07:07:33;5.43;;;4.20;;
36443;SDS011;24692;45.642;13.806;2023-03-23T07:10:00;6.87;;;3.80;;
36443;SDS011;24692;45.642;13.806;2023-03-23T07:12:27;8.17;;;4.83;;
36443;SDS011;24692;45.642;13.806;2023-03-23T07:14:53;7.87;;;4.87;;
36443;SDS011;24692;45.642;13.806;2023-03-23T07:17:19;7.57;;;4.53;;
36443;SDS011;24692;45.642;13.806;2023-03-23T07:19:45;7.97;;;5.80;;
36443;SDS011;24692;45.642;13.806;2023-03-23T07:22:11;10.85;;;7.10;;
36443;SDS011;24692;45.642;13.806;2023-03-23T07:24:36;11.90;;;6.97;;
36443;SDS011;24692;45.642;13.806;2023-03-23T07:27:06;14.37;;;8.60;;
36443;SDS011;24692;45.642;13.806;2023-03-23T07:29:32;12.73;;;8.52;;
36443;SDS011;24692;45.642;13.806;2023-03-23T07:32:00;12.80;;;8.23;;
36443;SDS011;24692;45.642;13.806;2023-03-23T07:34:26;11.75;;;9.65;;
36443;SDS011;24692;45.642;13.806;2023-03-23T07:36:52;16.00;;;9.15;;
36443;SDS011;24692;45.642;13.806;2023-03-23T07:39:18;13.15;;;9.35;;
36443;SDS011;24692;45.642;13.806;2023-03-23T07:41:44;15.43;;;8.80;;
36443;SDS011;24692;45.642;13.806;2023-03-23T07:44:10;14.45;;;9.02;;
36443;SDS011;24692;45.642;13.806;2023-03-23T07:46:35;14.70;;;8.32;;
36443;SDS011;24692;45.642;13.806;2023-03-23T07:49:01;10.02;;;8.35;;
36443;SDS011;24692;45.642;13.806;2023-03-23T07:51:33;13.30;;;8.68;;
36443;SDS011;24692;45.642;13.806;2023-03-23T07:54:00;11.68;;;8.25;;
36443;SDS011;24692;45.642;13.806;2023-03-23T07:56:28;10.80;;;9.20;;
36443;SDS011;24692;45.642;13.806;2023-03-23T07:58:54;9.27;;;7.85;;
36443;SDS011;24692;45.642;13.806;2023-03-23T08:01:20;13.15;;;8.70;;
36443;SDS011;24692;45.642;13.806;2023-03-23T08:03:46;14.32;;;10.75;;
36443;SDS011;24692;45.642;13.806;2023-03-23T08:06:12;14.63;;;10.90;;
36443;SDS011;24692;45.642;13.806;2023-03-23T08:08:37;18.35;;;11.43;;
36443;SDS011;24692;45.642;13.806;2023-03-23T08:11:05;15.65;;;12.05;;
36443;SDS011;24692;45.642;13.806;2023-03-23T08:13:31;19.08;;;12.82;;
36443;SDS011;24692;45.642;13.806;2023-03-23T08:15:58;18.10;;;12.32;;
36443;SDS011;24692;45.642;13.806;2023-03-23T08:18:25;16.55;;;12.43;;
36443;SDS011;24692;45.642;13.806;2023-03-23T08:20:51;15.43;;;11.63;;
36443;SDS011;24692;45.642;13.806;2023-03-23T08:23:18;16.73;;;10.30;;
36443;SDS011;24692;45.642;13.806;2023-03-23T08:25:45;17.25;;;12.18;;
36443;SDS011;24692;45.642;13.806;2023-03-23T08:28:11;16.83;;;12.02;;
36443;SDS011;24692;45.642;13.806;2023-03-23T08:30:39;15.95;;;12.70;;
36443;SDS011;24692;45.642;13.806;2023-03-23T08:33:06;18.55;;;14.07;;
36443;SDS011;24692;45.642;13.806;2023-03-23T08:35:32;16.98;;;14.27;;
36443;SDS011;24692;45.642;13.806;2023-03-23T08:37:59;20.52;;;14.93;;
36443;SDS011;24692;45.642;13.806;2023-03-23T08:40:25;16.73;;;13.00;;
36443;SDS011;24692;45.642;13.806;2023-03-23T08:42:51;15.43;;;12.70;;
36443;SDS011;24692;45.642;13.806;2023-03-23T08:45:18;13.85;;;11.48;;
36443;SDS011;24692;45.642;13.806;2023-03-23T08:47:47;12.80;;;9.70;;
36443;SDS011;24692;45.642;13.806;2023-03-23T08:50:18;9.50;;;7.30;;
36443;SDS011;24692;45.642;13.806;2023-03-23T08:52:47;12.18;;;8.20;;
36443;SDS011;24692;45.642;13.806;2023-03-23T08:55:14;14.48;;;8.95;;
36443;SDS011;24692;45.642;13.806;2023-03-23T08:57:41;10.07;;;7.18;;
36443;SDS011;24692;45.642;13.806;2023-03-23T09:00:10;8.05;;;6.20;;
36443;SDS011;24692;45.642;13.806;2023-03-23T09:02:48;11.13;;;6.65;;
36443;SDS011;24692;45.642;13.806;2023-03-23T09:05:17;6.97;;;5.88;;
36443;SDS011;24692;45.642;13.806;2023-03-23T09:07:47;6.53;;;5.38;;
36443;SDS011;24692;45.642;13.806;2023-03-23T09:10:14;5.68;;;4.97;;
36443;SDS011;24692;45.642;13.806;2023-03-23T09:12:41;8.85;;;5.97;;
36443;SDS011;24692;45.642;13.806;2023-03-23T09:15:08;6.40;;;5.18;;
36443;SDS011;24692;45.642;13.806;2023-03-23T09:17:37;5.55;;;5.05;;
36443;SDS011;24692;45.642;13.806;2023-03-23T09:20:06;7.43;;;6.05;;
36443;SDS011;24692;45.642;13.806;2023-03-23T09:22:36;8.10;;;5.63;;
36443;SDS011;24692;45.642;13.806;2023-03-23T09:25:03;9.70;;;6.10;;
36443;SDS011;24692;45.642;13.806;2023-03-23T09:27:29;10.88;;;5.80;;
36443;SDS011;24692;45.642;13.806;2023-03-23T09:29:55;8.43;;;5.65;;
36443;SDS011;24692;45.642;13.806;2023-03-23T09:32:21;7.30;;;5.15;;
36443;SDS011;24692;45.642;13.806;2023-03-23T09:34:47;5.10;;;4.22;;
36443;SDS011;24692;45.642;13.806;2023-03-23T09:37:14;9.25;;;4.57;;
36443;SDS011;24692;45.642;13.806;2023-03-23T09:39:39;7.05;;;4.78;;
36443;SDS011;24692;45.642;13.806;2023-03-23T09:47:54;5.07;;;4.20;;
36443;SDS011;24692;45.642;13.806;2023-03-23T09:50:29;6.97;;;4.38;;
36443;SDS011;24692;45.642;13.806;2023-03-23T09:52:58;6.55;;;4.57;;
36443;SDS011;24692;45.642;13.806;2023-03-23T09:55:26;6.03;;;4.70;;
36443;SDS011;24692;45.642;13.806;2023-03-23T10:00:45;7.07;;;5.20;;
36443;SDS011;24692;45.642;13.806;2023-03-23T10:03:17;13.65;;;5.72;;
36443;SDS011;24692;45.642;13.806;2023-03-23T10:05:51;8.32;;;6.20;;
36443;SDS011;24692;45.642;13.806;2023-03-23T10:08:24;7.38;;;5.88;;
36443;SDS011;24692;45.642;13.806;2023-03-23T10:11:03;7.90;;;5.63;;
36443;SDS011;24692;45.642;13.806;2023-03-23T10:17:00;8.10;;;6.93;;
36443;SDS011;24692;45.642;13.806;2023-03-23T10:19:34;10.23;;;6.80;;
36443;SDS011;24692;45.642;13.806;2023-03-23T10:22:10;8.13;;;6.93;;
36443;SDS011;24692;45.642;13.806;2023-03-23T10:24:43;9.20;;;7.30;;
36443;SDS011;24692;45.642;13.806;2023-03-23T10:27:50;8.73;;;6.85;;
36443;SDS011;24692;45.642;13.806;2023-03-23T10:30:30;10.98;;;7.45;;
36443;SDS011;24692;45.642;13.806;2023-03-23T10:33:08;10.30;;;7.03;;
36443;SDS011;24692;45.642;13.806;2023-03-23T10:36:15;10.65;;;7.50;;
36443;SDS011;24692;45.642;13.806;2023-03-23T10:41:40;9.90;;;7.13;;
36443;SDS011;24692;45.642;13.806;2023-03-23T10:44:10;9.60;;;7.63;;
36443;SDS011;24692;45.642;13.806;2023-03-23T10:49:16;9.70;;;7.15;;
36443;SDS011;24692;45.642;13.806;2023-03-23T10:51:50;8.88;;;7.05;;
36443;SDS011;24692;45.642;13.806;2023-03-23T10:54:51;9.63;;;7.35;;
36443;SDS011;24692;45.642;13.806;2023-03-23T10:57:23;9.25;;;6.80;;
36443;SDS011;24692;45.642;13.806;2023-03-23T10:59:59;11.30;;;6.80;;
36443;SDS011;24692;45.642;13.806;2023-03-23T11:02:39;10.32;;;6.75;;
36443;SDS011;24692;45.642;13.806;2023-03-23T11:05:18;8.93;;;6.78;;
36443;SDS011;24692;45.642;13.806;2023-03-23T11:07:55;10.00;;;6.30;;
36443;SDS011;24692;45.642;13.806;2023-03-23T11:10:26;9.10;;;6.32;;
36443;SDS011;24692;45.642;13.806;2023-03-23T11:13:03;6.97;;;5.22;;
36443;SDS011;24692;45.642;13.806;2023-03-23T11:15:35;8.45;;;5.50;;
36443;SDS011;24692;45.642;13.806;2023-03-23T11:18:05;7.25;;;5.38;;
36443;SDS011;24692;45.642;13.806;2023-03-23T11:20:38;6.70;;;5.18;;
36443;SDS011;24692;45.642;13.806;2023-03-23T11:23:11;10.25;;;6.00;;
36443;SDS011;24692;45.642;13.806;2023-03-23T11:28:21;11.82;;;6.72;;
36443;SDS011;24692;45.642;13.806;2023-03-23T11:30:52;6.93;;;5.97;;
36443;SDS011;24692;45.642;13.806;2023-03-23T11:33:20;7.25;;;6.22;;
36443;SDS011;24692;45.642;13.806;2023-03-23T11:35:45;10.15;;;6.53;;
36443;SDS011;24692;45.642;13.806;2023-03-23T11:38:19;10.20;;;7.00;;
36443;SDS011;24692;45.642;13.806;2023-03-23T11:40:48;9.77;;;7.28;;
36443;SDS011;24692;45.642;13.806;2023-03-23T11:43:18;8.95;;;6.45;;
36443;SDS011;24692;45.642;13.806;2023-03-23T11:46:01;9.02;;;7.10;;
36443;SDS011;24692;45.642;13.806;2023-03-23T11:48:35;10.88;;;7.82;;
36443;SDS011;24692;45.642;13.806;2023-03-23T11:53:42;8.77;;;7.00;;
36443;SDS011;24692;45.642;13.806;2023-03-23T11:56:28;11.90;;;7.93;;
36443;SDS011;24692;45.642;13.806;2023-03-23T11:58:56;10.05;;;7.38;;
36443;SDS011;24692;45.642;13.806;2023-03-23T12:12:49;10.80;;;7.40;;
36443;SDS011;24692;45.642;13.806;2023-03-23T12:17:41;10.60;;;7.07;;
36443;SDS011;24692;45.642;13.806;2023-03-23T12:20:17;8.38;;;6.35;;
36443;SDS011;24692;45.642;13.806;2023-03-23T12:23:10;5.82;;;5.00;;
36443;SDS011;24692;45.642;13.806;2023-03-23T12:25:37;8.60;;;6.10;;
36443;SDS011;24692;45.642;13.806;2023-03-23T12:31:07;8.02;;;6.20;;
36443;SDS011;24692;45.642;13.806;2023-03-23T12:39:31;5.85;;;4.65;;
36443;SDS011;24692;45.642;13.806;2023-03-23T12:47:46;6.28;;;5.28;;
36443;SDS011;24692;45.642;13.806;2023-03-23T12:50:38;8.27;;;4.97;;
36443;SDS011;24692;45.642;13.806;2023-03-23T12:54:10;7.28;;;5.20;;
36443;SDS011;24692;45.642;13.806;2023-03-23T12:59:07;7.13;;;6.35;;
36443;SDS011;24692;45.642;13.806;2023-03-23T13:01:56;9.10;;;5.72;;
36443;SDS011;24692;45.642;13.806;2023-03-23T13:04:30;8.35;;;5.60;;
36443;SDS011;24692;45.642;13.806;2023-03-23T13:07:10;4.25;;;3.83;;
36443;SDS011;24692;45.642;13.806;2023-03-23T13:12:38;5.70;;;4.13;;
36443;SDS011;24692;45.642;13.806;2023-03-23T13:15:22;4.15;;;3.38;;
36443;SDS011;24692;45.642;13.806;2023-03-23T13:23:18;4.75;;;3.58;;
36443;SDS011;24692;45.642;13.806;2023-03-23T13:25:55;4.03;;;2.83;;
36443;SDS011;24692;45.642;13.806;2023-03-23T13:28:31;3.45;;;3.15;;
36443;SDS011;24692;45.642;13.806;2023-03-23T13:33:28;6.72;;;5.53;;
36443;SDS011;24692;45.642;13.806;2023-03-23T13:35:56;5.43;;;4.93;;
36443;SDS011;24692;45.642;13.806;2023-03-23T13:38:30;6.18;;;5.13;;
36443;SDS011;24692;45.642;13.806;2023-03-23T13:40:56;9.35;;;6.38;;
36443;SDS011;24692;45.642;13.806;2023-03-23T13:43:27;11.95;;;5.47;;
36443;SDS011;24692;45.642;13.806;2023-03-23T13:46:08;10.45;;;5.80;;
36443;SDS011;24692;45.642;13.806;2023-03-23T13:48:44;9.23;;;5.40;;
36443;SDS011;24692;45.642;13.806;2023-03-23T13:51:32;10.35;;;5.78;;
36443;SDS011;24692;45.642;13.806;2023-03-23T13:54:05;7.40;;;5.03;;
36443;SDS011;24692;45.642;13.806;2023-03-23T13:56:55;8.13;;;5.25;;
36443;SDS011;24692;45.642;13.806;2023-03-23T14:01:53;8.95;;;4.53;;
36443;SDS011;24692;45.642;13.806;2023-03-23T14:04:20;5.43;;;4.22;;
36443;SDS011;24692;45.642;13.806;2023-03-23T14:06:48;6.40;;;4.88;;
36443;SDS011;24692;45.642;13.806;2023-03-23T14:09:17;5.70;;;4.68;;
36443;SDS011;24692;45.642;13.806;2023-03-23T14:11:57;5.30;;;4.75;;
36443;SDS011;24692;45.642;13.806;2023-03-23T14:14:38;6.78;;;4.93;;
36443;SDS011;24692;45.642;13.806;2023-03-23T14:17:07;4.60;;;3.95;;
36443;SDS011;24692;45.642;13.806;2023-03-23T14:19:38;4.93;;;4.30;;
36443;SDS011;24692;45.642;13.806;2023-03-23T14:22:16;4.78;;;4.10;;
36443;SDS011;24692;45.642;13.806;2023-03-23T14:24:44;5.00;;;4.18;;
36443;SDS011;24692;45.642;13.806;2023-03-23T14:29:40;5.20;;;4.13;;
36443;SDS011;24692;45.642;13.806;2023-03-23T14:32:07;5.40;;;3.88;;
36443;SDS011;24692;45.642;13.806;2023-03-23T14:34:50;5.47;;;3.58;;
36443;SDS011;24692;45.642;13.806;2023-03-23T14:37:17;4.40;;;3.50;;
36443;SDS011;24692;45.642;13.806;2023-03-23T14:39:50;5.70;;;3.92;;
36443;SDS011;24692;45.642;13.806;2023-03-23T14:42:29;4.65;;;4.15;;
36443;SDS011;24692;45.642;13.806;2023-03-23T14:44:56;6.18;;;4.28;;
36443;SDS011;24692;45.642;13.806;2023-03-23T14:47:31;5.78;;;4.18;;
36443;SDS011;24692;45.642;13.806;2023-03-23T14:50:21;5.90;;;4.95;;
36443;SDS011;24692;45.642;13.806;2023-03-23T14:52:49;4.85;;;4.25;;
36443;SDS011;24692;45.642;13.806;2023-03-23T14:55:22;4.55;;;3.75;;
36443;SDS011;24692;45.642;13.806;2023-03-23T14:57:48;4.47;;;3.55;;
36443;SDS011;24692;45.642;13.806;2023-03-23T15:00:16;5.20;;;3.88;;
36443;SDS011;24692;45.642;13.806;2023-03-23T15:02:49;5.50;;;3.72;;
36443;SDS011;24692;45.642;13.806;2023-03-23T15:05:31;5.00;;;3.30;;
36443;SDS011;24692;45.642;13.806;2023-03-23T15:08:10;4.38;;;3.00;;
36443;SDS011;24692;45.642;13.806;2023-03-23T15:13:27;4.63;;;4.00;;
36443;SDS011;24692;45.642;13.806;2023-03-23T15:16:00;4.53;;;3.63;;
36443;SDS011;24692;45.642;13.806;2023-03-23T15:18:34;5.15;;;3.47;;
36443;SDS011;24692;45.642;13.806;2023-03-23T15:21:08;5.95;;;4.25;;
36443;SDS011;24692;45.642;13.806;2023-03-23T15:23:40;4.80;;;4.40;;
36443;SDS011;24692;45.642;13.806;2023-03-23T15:26:09;6.10;;;3.97;;
36443;SDS011;24692;45.642;13.806;2023-03-23T15:28:45;4.78;;;3.95;;
36443;SDS011;24692;45.642;13.806;2023-03-23T15:31:11;5.75;;;3.92;;
36443;SDS011;24692;45.642;13.806;2023-03-23T15:33:38;6.13;;;4.00;;
36443;SDS011;24692;45.642;13.806;2023-03-23T15:36:06;9.30;;;4.10;;
36443;SDS011;24692;45.642;13.806;2023-03-23T15:38:46;6.18;;;4.30;;
36443;SDS011;24692;45.642;13.806;2023-03-23T15:41:28;5.72;;;3.45;;
36443;SDS011;24692;45.642;13.806;2023-03-23T15:43:58;5.00;;;3.70;;
36443;SDS011;24692;45.642;13.806;2023-03-23T15:46:35;5.00;;;3.60;;
36443;SDS011;24692;45.642;13.806;2023-03-23T15:51:28;5.20;;;4.03;;
36443;SDS011;24692;45.642;13.806;2023-03-23T15:53:55;6.43;;;4.60;;
36443;SDS011;24692;45.642;13.806;2023-03-23T15:56:22;6.70;;;4.80;;
36443;SDS011;24692;45.642;13.806;2023-03-23T15:58:48;6.35;;;4.47;;
36443;SDS011;24692;45.642;13.806;2023-03-23T16:01:18;5.97;;;4.90;;
36443;SDS011;24692;45.642;13.806;2023-03-23T16:03:48;6.40;;;4.85;;
36443;SDS011;24692;45.642;13.806;2023-03-23T16:06:22;6.22;;;4.15;;
36443;SDS011;24692;45.642;13.806;2023-03-23T16:08:52;5.18;;;4.60;;
36443;SDS011;24692;45.642;13.806;2023-03-23T16:11:18;5.28;;;4.15;;
36443;SDS011;24692;45.642;13.806;2023-03-23T16:13:46;6.93;;;4.85;;
36443;SDS011;24692;45.642;13.806;2023-03-23T16:16:16;6.40;;;4.38;;
36443;SDS011;24692;45.642;13.806;2023-03-23T16:18:45;5.60;;;5.00;;
36443;SDS011;24692;45.642;13.806;2023-03-23T16:21:22;6.57;;;4.75;;
36443;SDS011;24692;45.642;13.806;2023-03-23T16:23:50;6.32;;;5.15;;
36443;SDS011;24692;45.642;13.806;2023-03-23T16:26:16;7.95;;;4.40;;
36443;SDS011;24692;45.642;13.806;2023-03-23T16:28:43;8.73;;;4.37;;
36443;SDS011;24692;45.642;13.806;2023-03-23T16:31:08;6.53;;;4.18;;
36443;SDS011;24692;45.642;13.806;2023-03-23T16:33:35;5.30;;;4.28;;